PWSweather.com
Personal Weather Stations
Station Observations
N3SME
Betz Creek, Wilmington Island, Savannah, GA 31410

Betz Creek, Wilmington IslandSavannah, GA 31410

Lat: 32.023021, Lon: -80.959452

Elevation: 15

Station Type: Ambient

Latest ConditionsUpdated 5:27:19 PM EST Monday, Dec 22, 2014
Currently Today's Max Today's Min Today's Average
Temperature 54.9°F12.7°C 56.4°F13.6°C 48.6°F9.2°C 50.4°F10.2°C
Dew Point 45.5°F7.5°C 49.5°F9.7°C 44.3°F6.8°C 46.3°F7.9°C
Winds Calm Calm 12.3 mph NE19.8 kmh NE - 2.3 mph 3.7 kmh
Wind Gusts 14.1 mph22.7 kmh 31.5 mph50.7 kmh - -
Humidity 71% 99% 70% 86%
Pressure 29.86 in1011.2 mb 30.01 in1016.3 mb 29.84 in1010.5 mb -
Precipitation - 0.57 in14.5 mm - -
Hour Temp Dew Point Humidity Winds Wind Gusts Pressure Precip Precip Rate Daily Precip Total
05:27 PM 54.9°F12.7°C 45.5°F7.5°C 71% Calm Calm 14.1 mph22.7 kmh 29.86 in1011.2 mb 0.00 in0.0 mm 0.00 in/hr0.0 mm/hr 0.57 in14.5 mm
05:12 PM 56.4°F13.6°C 46.5°F8.1°C 70% 3.6 mph NE5.8 kmh NE 12.3 mph19.8 kmh 29.87 in1011.5 mb 0.01 in0.3 mm 0.00 in/hr0.0 mm/hr 0.57 in14.5 mm
04:57 PM 56.4°F13.6°C 46.9°F8.3°C 71% 1.8 mph NNE2.9 kmh NNE 14.1 mph22.7 kmh 29.86 in1011.2 mb 0.06 in1.5 mm 0.00 in/hr0.0 mm/hr 0.57 in14.5 mm
04:42 PM 56.0°F13.3°C 48.1°F8.9°C 75% Calm Calm 6.9 mph11.1 kmh 29.86 in1011.2 mb 0.09 in2.3 mm 0.00 in/hr0.0 mm/hr 0.57 in14.5 mm
04:27 PM 55.3°F12.9°C 49.5°F9.7°C 81% 5.1 mph ENE8.2 kmh ENE 10.5 mph16.9 kmh 29.84 in1010.5 mb 0.09 in2.3 mm 0.04 in/hr1.0 mm/hr 0.57 in14.5 mm
04:12 PM 54.6°F12.6°C 48.8°F9.3°C 81% Calm Calm 10.5 mph16.9 kmh 29.86 in1011.2 mb 0.08 in2.0 mm 0.05 in/hr1.3 mm/hr 0.57 in14.5 mm
03:57 PM 54.0°F12.2°C 48.3°F9.1°C 81% Calm Calm 6.9 mph11.1 kmh 29.88 in1011.9 mb 0.04 in1.0 mm 0.12 in/hr3.0 mm/hr 0.51 in13.0 mm
03:42 PM 52.8°F11.6°C 47.1°F8.4°C 81% Calm Calm 6.9 mph11.1 kmh 29.87 in1011.5 mb 0.01 in0.3 mm 0.00 in/hr0.0 mm/hr 0.47 in11.9 mm
03:27 PM 52.4°F11.3°C 47.0°F8.3°C 82% Calm Calm 5.1 mph8.2 kmh 29.85 in1010.8 mb 0.11 in2.8 mm 0.00 in/hr0.0 mm/hr 0.47 in11.9 mm
03:12 PM 51.3°F10.7°C 46.3°F7.9°C 83% 1.8 mph E2.9 kmh E 6.9 mph11.1 kmh 29.85 in1010.8 mb 0.34 in8.6 mm 0.00 in/hr0.0 mm/hr 0.47 in11.9 mm
02:58 PM 50.6°F10.3°C 46.2°F7.9°C 85% Calm Calm 5.1 mph8.2 kmh 29.87 in1011.5 mb 0.38 in9.7 mm 0.00 in/hr0.0 mm/hr 0.47 in11.9 mm
02:42 PM 49.9°F9.9°C 45.2°F7.3°C 84% 1.8 mph NE2.9 kmh NE 10.5 mph16.9 kmh 29.87 in1011.5 mb 0.39 in9.9 mm 0.48 in/hr12.2 mm/hr 0.46 in11.7 mm
02:27 PM 49.9°F9.9°C 45.2°F7.3°C 84% Calm Calm 5.1 mph8.2 kmh 29.90 in1012.5 mb 0.27 in6.9 mm 0.84 in/hr21.3 mm/hr 0.34 in8.6 mm
02:12 PM 49.4°F9.7°C 44.7°F7.1°C 84% Calm Calm 8.7 mph14.0 kmh 29.89 in1012.2 mb 0.06 in1.5 mm 0.03 in/hr0.8 mm/hr 0.12 in3.0 mm
01:57 PM 50.1°F10.1°C 45.1°F7.3°C 83% 1.8 mph NW2.9 kmh NW 31.5 mph50.7 kmh 29.93 in1013.5 mb 0.04 in1.0 mm 0.08 in/hr2.0 mm/hr 0.09 in2.3 mm
01:42 PM 50.4°F10.2°C 45.4°F7.4°C 83% 6.9 mph N11.1 kmh N 19.2 mph30.9 kmh 29.93 in1013.5 mb 0.02 in0.5 mm 0.00 in/hr0.0 mm/hr 0.07 in1.8 mm
01:27 PM 51.0°F10.6°C 46.3°F7.9°C 84% 1.8 mph N2.9 kmh N 5.1 mph8.2 kmh 29.91 in1012.9 mb 0.02 in0.5 mm 0.00 in/hr0.0 mm/hr 0.06 in1.5 mm
01:12 PM 51.5°F10.8°C 46.8°F8.2°C 84% 1.8 mph NE2.9 kmh NE 12.3 mph19.8 kmh 29.90 in1012.5 mb 0.04 in1.0 mm 0.00 in/hr0.0 mm/hr 0.06 in1.5 mm
12:57 PM 51.0°F10.6°C 46.0°F7.8°C 83% 1.8 mph ENE2.9 kmh ENE 15.7 mph25.3 kmh 29.90 in1012.5 mb 0.04 in1.0 mm 0.08 in/hr2.0 mm/hr 0.06 in1.5 mm
12:42 PM 51.3°F10.7°C 46.3°F7.9°C 83% 3.6 mph E5.8 kmh E 14.1 mph22.7 kmh 29.90 in1012.5 mb 0.02 in0.5 mm 0.04 in/hr1.0 mm/hr 0.05 in1.3 mm
12:27 PM 51.3°F10.7°C 47.0°F8.3°C 85% 5.1 mph ENE8.2 kmh ENE 14.1 mph22.7 kmh 29.91 in1012.9 mb 0.01 in0.3 mm 0.00 in/hr0.0 mm/hr 0.04 in1.0 mm
12:12 PM 50.8°F10.4°C 46.1°F7.8°C 84% 3.6 mph ENE5.8 kmh ENE 15.7 mph25.3 kmh 29.91 in1012.9 mb 0.01 in0.3 mm 0.00 in/hr0.0 mm/hr 0.02 in0.5 mm
11:57 AM 50.6°F10.3°C 45.9°F7.7°C 84% 5.1 mph ENE8.2 kmh ENE 17.4 mph28.0 kmh 29.93 in1013.5 mb 0.01 in0.3 mm 0.00 in/hr0.0 mm/hr 0.02 in0.5 mm
11:42 AM 50.6°F10.3°C 45.6°F7.6°C 83% 3.6 mph ENE5.8 kmh ENE 14.1 mph22.7 kmh 29.94 in1013.9 mb 0.01 in0.3 mm 0.00 in/hr0.0 mm/hr 0.02 in0.5 mm
11:27 AM 50.6°F10.3°C 45.6°F7.6°C 83% 1.8 mph ENE2.9 kmh ENE 14.1 mph22.7 kmh 29.95 in1014.2 mb 0.01 in0.3 mm 0.04 in/hr1.0 mm/hr 0.02 in0.5 mm
11:12 AM 50.3°F10.2°C 45.3°F7.4°C 83% 6.9 mph ENE11.1 kmh ENE 14.1 mph22.7 kmh 29.96 in1014.6 mb 0.00 in0.0 mm 0.00 in/hr0.0 mm/hr 0.01 in0.3 mm
10:57 AM 50.4°F10.2°C 45.4°F7.4°C 83% 1.8 mph ENE2.9 kmh ENE 15.7 mph25.3 kmh 29.97 in1014.9 mb 0.00 in0.0 mm 0.00 in/hr0.0 mm/hr 0.01 in0.3 mm
10:42 AM 50.4°F10.2°C 45.4°F7.4°C 83% 12.3 mph NE19.8 kmh NE 21.0 mph33.8 kmh 29.98 in1015.2 mb 0.00 in0.0 mm 0.00 in/hr0.0 mm/hr 0.01 in0.3 mm
10:27 AM 50.1°F10.1°C 45.1°F7.3°C 83% Calm Calm 10.5 mph16.9 kmh 29.99 in1015.6 mb 0.00 in0.0 mm 0.00 in/hr0.0 mm/hr 0.01 in0.3 mm
10:12 AM 49.5°F9.7°C 45.2°F7.3°C 85% 3.6 mph NE5.8 kmh NE 14.1 mph22.7 kmh 29.98 in1015.2 mb 0.01 in0.3 mm 0.00 in/hr0.0 mm/hr 0.01 in0.3 mm
09:57 AM 49.7°F9.8°C 45.4°F7.4°C 85% 3.6 mph NE5.8 kmh NE 19.2 mph30.9 kmh 29.98 in1015.2 mb 0.01 in0.3 mm 0.00 in/hr0.0 mm/hr 0.01 in0.3 mm
09:42 AM 50.1°F10.1°C 45.7°F7.6°C 85% 1.8 mph NE2.9 kmh NE 12.3 mph19.8 kmh 29.98 in1015.2 mb 0.01 in0.3 mm 0.00 in/hr0.0 mm/hr 0.01 in0.3 mm
09:27 AM 49.9°F9.9°C 45.5°F7.5°C 85% 3.6 mph NE5.8 kmh NE 10.5 mph16.9 kmh 29.98 in1015.2 mb 0.01 in0.3 mm 0.04 in/hr1.0 mm/hr 0.01 in0.3 mm
09:12 AM 49.9°F9.9°C 45.5°F7.5°C 85% 5.1 mph NE8.2 kmh NE 10.5 mph16.9 kmh 29.98 in1015.2 mb 0.00 in0.0 mm 0.00 in/hr0.0 mm/hr 0.01 in0.3 mm
08:57 AM 49.7°F9.8°C 45.4°F7.4°C 85% 1.8 mph NE2.9 kmh NE 17.4 mph28.0 kmh 29.98 in1015.2 mb 0.00 in0.0 mm 0.00 in/hr0.0 mm/hr 0.01 in0.3 mm
08:42 AM 49.5°F9.7°C 45.2°F7.3°C 85% 10.5 mph ENE16.9 kmh ENE 17.4 mph28.0 kmh 29.96 in1014.6 mb 0.00 in0.0 mm 0.00 in/hr0.0 mm/hr 0.01 in0.3 mm
08:27 AM 49.5°F9.7°C 44.9°F7.2°C 84% 5.1 mph NE8.2 kmh NE 14.1 mph22.7 kmh 29.98 in1015.2 mb 0.00 in0.0 mm 0.00 in/hr0.0 mm/hr 0.01 in0.3 mm
08:12 AM 49.0°F9.4°C 44.7°F7.1°C 85% 1.8 mph ENE2.9 kmh ENE 6.9 mph11.1 kmh 29.97 in1014.9 mb 0.00 in0.0 mm 0.00 in/hr0.0 mm/hr 0.01 in0.3 mm
07:57 AM 49.0°F9.4°C 45.0°F7.2°C 86% Calm Calm 12.3 mph19.8 kmh 29.98 in1015.2 mb 0.00 in0.0 mm 0.00 in/hr0.0 mm/hr 0.01 in0.3 mm
07:42 AM 48.6°F9.2°C 44.6°F7.0°C 86% 1.8 mph NNE2.9 kmh NNE 12.3 mph19.8 kmh 29.98 in1015.2 mb 0.00 in0.0 mm 0.00 in/hr0.0 mm/hr 0.01 in0.3 mm
07:27 AM 49.4°F9.7°C 45.3°F7.4°C 86% 3.6 mph ENE5.8 kmh ENE 17.4 mph28.0 kmh 29.98 in1015.2 mb 0.00 in0.0 mm 0.00 in/hr0.0 mm/hr 0.01 in0.3 mm
07:12 AM 48.6°F9.2°C 44.3°F6.8°C 85% Calm Calm 8.7 mph14.0 kmh 29.97 in1014.9 mb 0.00 in0.0 mm 0.00 in/hr0.0 mm/hr 0.01 in0.3 mm
06:57 AM 49.0°F9.4°C 44.7°F7.1°C 85% Calm Calm 14.1 mph22.7 kmh 29.97 in1014.9 mb 0.00 in0.0 mm 0.00 in/hr0.0 mm/hr 0.01 in0.3 mm
06:42 AM 49.0°F9.4°C 44.7°F7.1°C 85% Calm Calm 12.3 mph19.8 kmh 29.97 in1014.9 mb 0.00 in0.0 mm 0.00 in/hr0.0 mm/hr 0.01 in0.3 mm
06:27 AM 49.4°F9.7°C 45.0°F7.2°C 85% Calm Calm 8.7 mph14.0 kmh 29.96 in1014.6 mb 0.00 in0.0 mm 0.00 in/hr0.0 mm/hr 0.01 in0.3 mm
06:12 AM 49.4°F9.7°C 45.0°F7.2°C 85% 3.6 mph NNW5.8 kmh NNW 17.4 mph28.0 kmh 29.97 in1014.9 mb 0.00 in0.0 mm 0.00 in/hr0.0 mm/hr 0.01 in0.3 mm
05:57 AM 49.5°F9.7°C 45.5°F7.5°C 86% 5.1 mph N8.2 kmh N 12.3 mph19.8 kmh 29.96 in1014.6 mb 0.00 in0.0 mm 0.00 in/hr0.0 mm/hr 0.01 in0.3 mm
05:42 AM 50.3°F10.2°C 45.9°F7.7°C 85% Calm Calm 8.7 mph14.0 kmh 29.94 in1013.9 mb 0.00 in0.0 mm 0.00 in/hr0.0 mm/hr 0.01 in0.3 mm
05:27 AM 50.1°F10.1°C 45.7°F7.6°C 85% 1.8 mph NW2.9 kmh NW 17.4 mph28.0 kmh 29.95 in1014.2 mb 0.00 in0.0 mm 0.00 in/hr0.0 mm/hr 0.01 in0.3 mm
05:12 AM 49.7°F9.8°C 45.4°F7.4°C 85% 5.1 mph E8.2 kmh E 12.3 mph19.8 kmh 29.90 in1012.5 mb 0.00 in0.0 mm 0.00 in/hr0.0 mm/hr 0.01 in0.3 mm
04:57 AM 49.9°F9.9°C 45.5°F7.5°C 85% 5.1 mph NE8.2 kmh NE 12.3 mph19.8 kmh 29.92 in1013.2 mb 0.00 in0.0 mm 0.00 in/hr0.0 mm/hr 0.01 in0.3 mm
04:42 AM 50.1°F10.1°C 45.7°F7.6°C 85% Calm Calm 8.7 mph14.0 kmh 29.95 in1014.2 mb 0.00 in0.0 mm 0.00 in/hr0.0 mm/hr 0.01 in0.3 mm
04:27 AM 50.1°F10.1°C 45.7°F7.6°C 85% 3.6 mph NE5.8 kmh NE 8.7 mph14.0 kmh 29.94 in1013.9 mb 0.00 in0.0 mm 0.00 in/hr0.0 mm/hr 0.01 in0.3 mm
04:12 AM 49.5°F9.7°C 45.2°F7.3°C 85% 1.8 mph NE2.9 kmh NE 10.5 mph16.9 kmh 29.93 in1013.5 mb 0.00 in0.0 mm 0.00 in/hr0.0 mm/hr 0.01 in0.3 mm
03:57 AM 49.7°F9.8°C 45.4°F7.4°C 85% 5.1 mph NE8.2 kmh NE 10.5 mph16.9 kmh 29.95 in1014.2 mb 0.00 in0.0 mm 0.00 in/hr0.0 mm/hr 0.01 in0.3 mm
03:42 AM 49.7°F9.8°C 45.7°F7.6°C 86% Calm Calm 6.9 mph11.1 kmh 29.96 in1014.6 mb 0.00 in0.0 mm 0.00 in/hr0.0 mm/hr 0.01 in0.3 mm
03:27 AM 49.2°F9.6°C 48.9°F9.4°C 99% Calm Calm 10.5 mph16.9 kmh 29.96 in1014.6 mb 0.00 in0.0 mm 0.00 in/hr0.0 mm/hr 0.01 in0.3 mm
03:12 AM 49.4°F9.7°C 49.1°F9.5°C 99% 3.6 mph NNE5.8 kmh NNE 14.1 mph22.7 kmh 29.96 in1014.6 mb 0.00 in0.0 mm 0.00 in/hr0.0 mm/hr 0.01 in0.3 mm
02:57 AM 49.7°F9.8°C 49.5°F9.7°C 99% Calm Calm 12.3 mph19.8 kmh 29.97 in1014.9 mb 0.00 in0.0 mm 0.00 in/hr0.0 mm/hr 0.01 in0.3 mm
02:42 AM 49.5°F9.7°C 48.7°F9.3°C 97% 1.8 mph N2.9 kmh N 10.5 mph16.9 kmh 29.96 in1014.6 mb 0.00 in0.0 mm 0.00 in/hr0.0 mm/hr 0.01 in0.3 mm
02:27 AM 49.9°F9.9°C 49.1°F9.5°C 97% 3.6 mph NE5.8 kmh NE 10.5 mph16.9 kmh 29.95 in1014.2 mb 0.00 in0.0 mm 0.00 in/hr0.0 mm/hr 0.01 in0.3 mm
02:12 AM 49.2°F9.6°C 48.1°F8.9°C 96% Calm Calm 6.9 mph11.1 kmh 29.97 in1014.9 mb 0.00 in0.0 mm 0.00 in/hr0.0 mm/hr 0.01 in0.3 mm
01:57 AM 49.4°F9.7°C 48.3°F9.1°C 96% Calm Calm 12.3 mph19.8 kmh 29.97 in1014.9 mb 0.00 in0.0 mm 0.00 in/hr0.0 mm/hr 0.01 in0.3 mm
01:42 AM 48.6°F9.2°C 47.6°F8.7°C 96% Calm Calm 12.3 mph19.8 kmh 29.98 in1015.2 mb 0.00 in0.0 mm 0.00 in/hr0.0 mm/hr 0.01 in0.3 mm
01:27 AM 49.2°F9.6°C 48.4°F9.1°C 97% 3.6 mph W5.8 kmh W 8.7 mph14.0 kmh 29.98 in1015.2 mb 0.00 in0.0 mm 0.00 in/hr0.0 mm/hr 0.01 in0.3 mm
01:12 AM 48.8°F9.3°C 48.0°F8.9°C 97% Calm Calm 14.1 mph22.7 kmh 29.98 in1015.2 mb 0.00 in0.0 mm 0.00 in/hr0.0 mm/hr 0.01 in0.3 mm
12:57 AM 48.8°F9.3°C 48.0°F8.9°C 97% 1.8 mph ENE2.9 kmh ENE 15.7 mph25.3 kmh 29.98 in1015.2 mb 0.00 in0.0 mm 0.00 in/hr0.0 mm/hr 0.01 in0.3 mm
12:42 AM 48.8°F9.3°C 48.0°F8.9°C 97% Calm Calm 12.3 mph19.8 kmh 29.99 in1015.6 mb 0.01 in0.3 mm 0.00 in/hr0.0 mm/hr 0.01 in0.3 mm
12:27 AM 48.6°F9.2°C 47.8°F8.8°C 97% 3.6 mph ENE5.8 kmh ENE 14.1 mph22.7 kmh 29.99 in1015.6 mb 0.01 in0.3 mm 0.00 in/hr0.0 mm/hr 0.01 in0.3 mm
12:12 AM 48.8°F9.3°C 48.0°F8.9°C 97% Calm Calm 12.3 mph19.8 kmh 30.01 in1016.3 mb 0.01 in0.3 mm 0.05 in/hr1.3 mm/hr 0.01 in0.3 mm